Time;durP1;ratioP1;P1;durP2;ratioP2;P2;SDS_P1;SDS_P2;PMS_P1;PMS_P2;Temp;Humidity;BMP_temperature;BMP_pressure;BME280_temperature;BME280_humidity;BME280_pressure;Samples;Min_cycle;Max_cycle;Signal;HPM_P1;HPM_P2
2023/04/22 00:01:38;;;;;;;;;;;;;;;4.62;54.20;101525.34;108755;1256;123637;-81
2023/04/22 00:04:06;;;;;;;;;;;;;;;4.60;54.22;101521.75;108804;1258;65845;-80
2023/04/22 00:06:33;;;;;;;;;;;;;;;4.58;54.24;101520.73;108728;1258;124223;-81
2023/04/22 00:09:00;;;;;;;;;;;;;;;4.56;54.14;101518.56;108794;1256;59578;-80
2023/04/22 00:11:27;;;;;;;;;;;;;;;4.55;54.20;101516.35;108799;1256;124454;-80
2023/04/22 00:13:54;;;;;;;;;;;;;;;4.53;54.30;101514.84;108815;1256;75172;-80
2023/04/22 00:16:21;;;;;;;;;;;;;;;4.51;54.37;101513.87;108678;1256;270062;-79
2023/04/22 00:18:48;;;;;;;;;;;;;;;4.48;54.28;101514.03;108750;1256;124433;-79
2023/04/22 00:21:18;;;;;;;;;;;;;;;4.45;54.45;101514.56;108862;1256;59277;-79
2023/04/22 00:23:46;;;;;;;;;;;;;;;4.43;54.63;101509.23;108762;1256;123893;-81
2023/04/22 00:26:12;;;;;;;;;;;;;;;4.42;54.63;101512.96;108891;1256;74369;-81
2023/04/22 00:28:39;;;;;;;;;;;;;;;4.40;54.79;101514.24;108809;1256;66919;-81
2023/04/22 00:31:06;;;;;;;;;;;;;;;4.38;54.88;101509.27;108775;1256;124365;-81
2023/04/22 00:33:33;;;;;;;;;;;;;;;4.36;54.93;101506.14;108884;1258;60031;-79
2023/04/22 00:36:00;;;;;;;;;;;;;;;4.34;55.14;101504.29;108719;1257;125178;-78
2023/04/22 00:38:27;;;;;;;;;;;;;;;4.32;55.29;101504.70;108871;1256;75258;-78
2023/04/22 00:40:54;;;;;;;;;;;;;;;4.30;55.44;101504.42;108826;1256;65836;-78
2023/04/22 00:43:21;;;;;;;;;;;;;;;4.28;55.63;101502.23;108662;1256;123831;-78
2023/04/22 00:45:48;;;;;;;;;;;;;;;4.26;55.69;101503.85;108785;1257;59572;-78
2023/04/22 00:48:15;;;;;;;;;;;;;;;4.24;55.82;101502.32;108732;1262;123940;-78
2023/04/22 00:50:42;;;;;;;;;;;;;;;4.21;55.90;101499.02;108890;1256;73367;-78
2023/04/22 00:53:09;;;;;;;;;;;;;;;4.19;55.96;101497.98;108886;1257;66998;-77
2023/04/22 00:55:36;;;;;;;;;;;;;;;4.16;56.05;101499.55;108725;1256;124191;-78
2023/04/22 00:58:02;;;;;;;;;;;;;;;4.14;56.26;101496.80;108818;1256;59391;-80
2023/04/22 01:00:29;;;;;;;;;;;;;;;4.11;56.42;101498.33;108765;1256;124392;-80
2023/04/22 01:02:56;;;;;;;;;;;;;;;4.08;56.44;101498.04;108874;1256;75209;-80
2023/04/22 01:05:23;;;;;;;;;;;;;;;4.07;56.55;101496.02;108680;1256;123964;-79
2023/04/22 01:07:50;;;;;;;;;;;;;;;4.05;56.57;101491.89;108762;1256;72723;-79
2023/04/22 01:10:17;;;;;;;;;;;;;;;4.03;56.64;101496.30;108873;1256;59685;-79
2023/04/22 01:12:44;;;;;;;;;;;;;;;4.02;56.64;101496.23;107837;1256;124226;-78
2023/04/22 01:15:11;;;;;;;;;;;;;;;4.01;56.71;101497.71;107422;1257;73373;-78
2023/04/22 01:17:38;;;;;;;;;;;;;;;3.98;56.80;101497.04;107290;1264;123886;-78
2023/04/22 01:20:09;;;;;;;;;;;;;;;3.96;56.67;101497.96;107596;1256;70530;-79
2023/04/22 01:22:36;;;;;;;;;;;;;;;3.94;56.81;101497.79;107577;1256;59559;-80
2023/04/22 01:25:03;;;;;;;;;;;;;;;3.96;56.61;101497.75;107377;1257;124120;-80
2023/04/22 01:27:30;;;;;;;;;;;;;;;3.97;56.68;101496.45;107517;1258;73551;-79
2023/04/22 01:29:57;;;;;;;;;;;;;;;3.98;56.75;101499.27;107522;1256;124652;-79
2023/04/22 01:32:24;;;;;;;;;;;;;;;3.97;56.60;101499.40;108696;1256;72414;-80
2023/04/22 01:34:51;;;;;;;;;;;;;;;3.96;56.71;101501.24;108854;1256;59240;-81
2023/04/22 01:37:18;;;;;;;;;;;;;;;3.96;56.75;101498.27;108833;1256;123753;-80
2023/04/22 01:39:45;;;;;;;;;;;;;;;3.94;56.69;101499.39;108934;1256;72638;-80
2023/04/22 01:42:12;;;;;;;;;;;;;;;3.93;56.95;101501.53;108827;1256;123902;-80
2023/04/22 01:44:39;;;;;;;;;;;;;;;3.91;56.99;101498.13;108853;1256;73440;-80
2023/04/22 01:47:06;;;;;;;;;;;;;;;3.89;57.06;101505.13;108832;1256;59349;-80
2023/04/22 01:49:33;;;;;;;;;;;;;;;3.87;57.12;101501.73;108626;1256;123842;-79
2023/04/22 01:52:00;;;;;;;;;;;;;;;3.85;57.39;101501.06;108841;1256;75288;-79
2023/04/22 01:54:27;;;;;;;;;;;;;;;3.82;57.29;101500.72;108690;1256;124377;-79
2023/04/22 01:56:54;;;;;;;;;;;;;;;3.79;57.42;101499.63;108810;1256;71112;-79
2023/04/22 01:59:21;;;;;;;;;;;;;;;3.75;57.43;101497.31;108629;1256;124479;-79
2023/04/22 02:01:48;;;;;;;;;;;;;;;3.71;57.56;101498.77;108729;1256;59195;-79
2023/04/22 02:04:15;;;;;;;;;;;;;;;3.67;57.76;101501.69;108640;1256;73128;-79
2023/04/22 02:06:42;;;;;;;;;;;;;;;3.65;57.86;101498.19;108613;1256;124424;-79
2023/04/22 02:09:09;;;;;;;;;;;;;;;3.63;57.88;101497.26;108758;1256;72677;-78
2023/04/22 02:11:36;;;;;;;;;;;;;;;3.61;58.02;101490.52;108751;1256;123945;-78
2023/04/22 02:14:03;;;;;;;;;;;;;;;3.60;58.06;101491.46;108830;1260;59306;-78
2023/04/22 02:16:30;;;;;;;;;;;;;;;3.58;58.08;101492.35;108863;1256;75067;-78
2023/04/22 02:18:57;;;;;;;;;;;;;;;3.56;58.27;101492.42;108613;1257;124157;-78
2023/04/22 02:21:25;;;;;;;;;;;;;;;3.54;58.32;101490.91;108800;1256;74096;-79
2023/04/22 02:23:52;;;;;;;;;;;;;;;3.53;58.36;101491.35;108685;1257;125456;-78
2023/04/22 02:26:19;;;;;;;;;;;;;;;3.51;58.33;101487.23;108883;1256;59916;-78
2023/04/22 02:28:46;;;;;;;;;;;;;;;3.49;58.31;101483.32;108765;1256;75133;-79
2023/04/22 02:31:13;;;;;;;;;;;;;;;3.48;58.37;101483.06;108699;1257;123866;-78
2023/04/22 02:33:40;;;;;;;;;;;;;;;3.46;58.40;101483.11;108868;1256;73214;-78
2023/04/22 02:36:07;;;;;;;;;;;;;;;3.44;58.54;101480.92;108779;1256;124120;-78
2023/04/22 02:38:34;;;;;;;;;;;;;;;3.43;58.48;101476.65;108859;1256;59257;-78
2023/04/22 02:41:01;;;;;;;;;;;;;;;3.42;58.61;101474.70;108717;1257;75517;-78
2023/04/22 02:43:28;;;;;;;;;;;;;;;3.41;58.65;101474.13;108702;1256;124144;-78
2023/04/22 02:45:55;;;;;;;;;;;;;;;3.40;58.73;101476.11;108609;1257;72676;-78
2023/04/22 02:48:22;;;;;;;;;;;;;;;3.39;58.71;101478.27;108723;1256;124310;-79
2023/04/22 02:50:49;;;;;;;;;;;;;;;3.38;58.83;101481.00;108858;1256;59339;-80
2023/04/22 02:53:16;;;;;;;;;;;;;;;3.37;59.05;101482.34;108783;1256;73436;-79
2023/04/22 02:55:43;;;;;;;;;;;;;;;3.36;59.05;101479.14;108762;1256;124030;-80
2023/04/22 02:58:10;;;;;;;;;;;;;;;3.35;59.13;101480.63;108929;1256;72668;-80
2023/04/22 03:00:36;;;;;;;;;;;;;;;3.33;59.22;101481.55;108695;1259;124519;-80
2023/04/22 03:03:04;;;;;;;;;;;;;;;3.33;59.24;101483.27;108882;1256;60115;-80
2023/04/22 03:05:30;;;;;;;;;;;;;;;3.32;59.04;101481.11;108687;1256;124535;-80
2023/04/22 03:07:57;;;;;;;;;;;;;;;3.31;59.28;101477.11;108888;1256;65697;-80
2023/04/22 03:10:24;;;;;;;;;;;;;;;3.32;59.21;101480.62;108640;1256;71762;-80
2023/04/22 03:12:51;;;;;;;;;;;;;;;3.33;59.32;101476.14;107346;1257;123909;-79
2023/04/22 03:15:18;;;;;;;;;;;;;;;3.34;59.46;101478.84;107541;1256;59954;-79
2023/04/22 03:17:45;;;;;;;;;;;;;;;3.35;59.34;101473.14;107522;1260;124511;-80
2023/04/22 03:20:12;;;;;;;;;;;;;;;3.35;59.36;101470.75;107388;1259;65395;-79
2023/04/22 03:22:40;;;;;;;;;;;;;;;3.38;59.39;101470.90;107369;1260;72420;-79
2023/04/22 03:25:07;;;;;;;;;;;;;;;3.38;59.33;101468.70;107705;1256;124801;-79
2023/04/22 03:27:34;;;;;;;;;;;;;;;3.39;59.42;101467.23;108042;1256;59606;-80
2023/04/22 03:30:01;;;;;;;;;;;;;;;3.41;59.33;101465.45;107782;1256;125061;-80
2023/04/22 03:32:29;;;;;;;;;;;;;;;3.42;59.38;101462.21;107844;1259;67166;-81
2023/04/22 03:34:56;;;;;;;;;;;;;;;3.44;59.37;101462.50;107802;1256;71400;-80
2023/04/22 03:37:23;;;;;;;;;;;;;;;3.46;59.31;101456.77;107814;1257;124278;-79
2023/04/22 03:39:50;;;;;;;;;;;;;;;3.49;59.42;101457.95;107966;1257;62176;-80
2023/04/22 03:42:17;;;;;;;;;;;;;;;3.52;59.48;101459.86;108084;1256;123910;-80
2023/04/22 03:44:44;;;;;;;;;;;;;;;3.55;59.43;101459.91;108155;1256;65922;-79
2023/04/22 03:47:11;;;;;;;;;;;;;;;3.60;59.46;101455.69;107835;1256;71412;-78
2023/04/22 03:49:38;;;;;;;;;;;;;;;3.65;59.31;101457.26;107738;1260;124032;-79
2023/04/22 03:52:05;;;;;;;;;;;;;;;3.87;59.57;101458.81;107817;1256;59983;-78
2023/04/22 03:54:32;;;;;;;;;;;;;;;4.76;60.27;101448.98;107311;1256;123753;-78
2023/04/22 03:57:00;;;;;;;;;;;;;;;5.99;59.89;101445.17;107165;1262;65478;-79
2023/04/22 03:59:27;;;;;;;;;;;;;;;7.18;58.92;101439.16;107221;1260;125093;-79
2023/04/22 04:01:55;;;;;;;;;;;;;;;8.33;57.98;101437.47;107407;1256;61072;-79
2023/04/22 04:04:22;;;;;;;;;;;;;;;9.48;56.89;101437.11;107539;1256;61352;-78
2023/04/22 04:06:50;;;;;;;;;;;;;;;10.56;55.53;101426.51;107598;1261;123925;-79
2023/04/22 04:09:17;;;;;;;;;;;;;;;11.52;54.25;101427.46;107770;1260;66821;-79
2023/04/22 04:11:44;;;;;;;;;;;;;;;12.45;53.07;101429.41;107594;1256;124863;-80
2023/04/22 04:14:11;;;;;;;;;;;;;;;13.36;51.89;101427.25;107909;1256;61211;-79
2023/04/22 04:16:38;;;;;;;;;;;;;;;14.20;50.56;101420.15;107727;1259;60842;-79
2023/04/22 04:19:05;;;;;;;;;;;;;;;14.95;49.45;101412.79;107795;1260;124839;-78
2023/04/22 04:21:33;;;;;;;;;;;;;;;15.63;48.26;101415.84;107496;1262;67611;-79
2023/04/22 04:23:59;;;;;;;;;;;;;;;16.26;47.43;101415.30;107797;1262;125292;-80
2023/04/22 04:26:26;;;;;;;;;;;;;;;16.93;46.17;101416.05;108034;1257;60765;-80
2023/04/22 04:28:54;;;;;;;;;;;;;;;17.54;45.41;101412.30;107940;1256;59979;-82
2023/04/22 04:31:23;;;;;;;;;;;;;;;18.18;45.02;101409.67;107604;1256;124784;-81
2023/04/22 04:33:51;;;;;;;;;;;;;;;19.03;44.27;101406.70;107934;1256;67139;-80
2023/04/22 04:36:18;;;;;;;;;;;;;;;19.79;43.60;101405.95;107641;1256;124597;-82
2023/04/22 04:38:46;;;;;;;;;;;;;;;20.67;42.77;101407.36;107818;1256;59956;-82
2023/04/22 04:41:14;;;;;;;;;;;;;;;21.50;41.86;101405.31;108024;1256;62170;-81
2023/04/22 04:43:41;;;;;;;;;;;;;;;22.03;40.72;101402.42;107924;1260;124188;-80
2023/04/22 04:46:08;;;;;;;;;;;;;;;22.50;40.08;101401.31;108634;1260;66921;-81
2023/04/22 04:48:36;;;;;;;;;;;;;;;22.86;39.12;101401.13;107525;1256;125312;-80
2023/04/22 04:51:05;;;;;;;;;;;;;;;23.33;38.72;101399.30;107745;1257;61302;-80
2023/04/22 04:53:33;;;;;;;;;;;;;;;23.91;38.12;101401.65;108739;1256;124350;-81
2023/04/22 04:56:01;;;;;;;;;;;;;;;24.46;37.64;101402.83;108216;1256;73256;-83
2023/04/22 04:58:28;;;;;;;;;;;;;;;25.09;36.99;101401.75;107749;1257;67064;-81
2023/04/22 05:00:55;;;;;;;;;;;;;;;25.62;36.39;101399.30;107629;1256;124292;-82
2023/04/22 05:03:22;;;;;;;;;;;;;;;26.15;35.93;101391.34;107401;1256;59350;-80
2023/04/22 05:05:48;;;;;;;;;;;;;;;26.71;35.46;101398.13;107667;1256;124786;-78
2023/04/22 05:08:15;;;;;;;;;;;;;;;27.19;35.02;101400.52;107478;1256;74672;-79
2023/04/22 05:10:43;;;;;;;;;;;;;;;27.75;34.63;101403.83;108714;1257;65847;-78
2023/04/22 05:13:10;;;;;;;;;;;;;;;28.16;33.99;101399.60;108776;1256;124609;-80
2023/04/22 05:15:38;;;;;;;;;;;;;;;28.32;33.36;101399.35;108768;1256;59449;-78
2023/04/22 05:18:05;;;;;;;;;;;;;;;28.18;32.61;101400.63;108359;1256;124481;-86
2023/04/22 05:20:32;;;;;;;;;;;;;;;27.16;32.00;101401.86;107448;1256;64527;-81
2023/04/22 05:22:59;;;;;;;;;;;;;;;25.67;31.52;101405.23;107591;1257;61206;-82
2023/04/22 05:25:40;;;;;;;;;;;;;;;23.73;31.40;101406.97;107944;1256;123927;-85
2023/04/22 05:28:09;;;;;;;;;;;;;;;22.09;32.00;101408.42;107855;1257;60262;-81
2023/04/22 05:30:36;;;;;;;;;;;;;;;20.78;32.74;101408.89;107344;1258;125046;-83
2023/04/22 05:33:03;;;;;;;;;;;;;;;19.72;33.41;101409.33;107502;1256;74707;-82
2023/04/22 05:35:29;;;;;;;;;;;;;;;18.67;34.07;101409.11;107729;1259;125000;-79
2023/04/22 05:37:56;;;;;;;;;;;;;;;17.76;34.89;101410.67;107815;1256;71416;-79
2023/04/22 05:40:23;;;;;;;;;;;;;;;17.10;35.71;101414.27;107850;1256;59964;-80
2023/04/22 05:42:50;;;;;;;;;;;;;;;16.57;36.38;101411.05;107862;1256;124851;-78
2023/04/22 05:45:17;;;;;;;;;;;;;;;16.15;36.88;101411.63;107803;1261;73369;-77
2023/04/22 05:47:45;;;;;;;;;;;;;;;15.73;37.46;101409.46;107615;1256;125849;-78
2023/04/22 05:50:12;;;;;;;;;;;;;;;15.29;37.97;101410.36;107514;1256;73251;-78
2023/04/22 05:52:39;;;;;;;;;;;;;;;14.88;38.45;101410.38;107569;1260;61157;-78
2023/04/22 05:55:06;;;;;;;;;;;;;;;14.62;39.14;101412.36;107765;1258;124886;-78
2023/04/22 05:57:33;;;;;;;;;;;;;;;14.38;39.57;101413.81;107828;1257;75208;-77
2023/04/22 06:00:01;;;;;;;;;;;;;;;14.12;39.96;101414.16;107583;1257;124452;-79
2023/04/22 06:02:29;;;;;;;;;;;;;;;13.89;40.57;101413.86;108416;1256;71155;-79
2023/04/22 06:04:56;;;;;;;;;;;;;;;13.69;40.97;101414.30;108843;1257;59265;-79
2023/04/22 06:07:23;;;;;;;;;;;;;;;13.49;41.50;101416.81;108766;1257;124238;-78
2023/04/22 06:09:50;;;;;;;;;;;;;;;13.24;41.89;101415.49;108887;1256;73483;-79
2023/04/22 06:12:17;;;;;;;;;;;;;;;13.09;42.36;101411.41;108858;1260;124109;-79
2023/04/22 06:14:44;;;;;;;;;;;;;;;12.96;42.73;101413.73;108771;1258;73236;-77
2023/04/22 06:17:11;;;;;;;;;;;;;;;12.81;42.93;101409.45;108707;1257;59469;-79
2023/04/22 06:19:38;;;;;;;;;;;;;;;12.68;43.33;101410.34;108821;1256;124548;-79
2023/04/22 06:22:05;;;;;;;;;;;;;;;12.54;43.43;101409.61;108897;1257;74503;-77
2023/04/22 06:24:32;;;;;;;;;;;;;;;12.39;43.80;101410.59;108688;1258;124281;-77
2023/04/22 06:26:59;;;;;;;;;;;;;;;12.20;43.96;101411.09;108701;1260;72564;-77
2023/04/22 06:29:26;;;;;;;;;;;;;;;12.03;44.40;101410.09;108698;1256;124657;-79
2023/04/22 06:31:53;;;;;;;;;;;;;;;11.97;44.72;101410.98;108772;1257;60137;-79
2023/04/22 06:34:21;;;;;;;;;;;;;;;11.88;45.01;101407.35;108797;1261;74784;-81
2023/04/22 06:36:48;;;;;;;;;;;;;;;11.82;45.24;101406.61;108787;1257;124570;-78
2023/04/22 06:39:15;;;;;;;;;;;;;;;11.76;45.47;101402.91;108786;1256;72522;-79
2023/04/22 06:41:43;;;;;;;;;;;;;;;11.73;45.60;101400.36;108858;1256;124294;-78
2023/04/22 06:44:10;;;;;;;;;;;;;;;11.69;45.70;101400.07;108918;1260;60708;-79
2023/04/22 06:46:37;;;;;;;;;;;;;;;11.65;45.94;101395.21;108759;1257;73923;-78
2023/04/22 06:49:04;;;;;;;;;;;;;;;11.62;46.17;101396.85;108698;1256;124525;-79
2023/04/22 06:51:31;;;;;;;;;;;;;;;11.60;46.35;101396.95;108888;1256;72718;-79
2023/04/22 06:53:58;;;;;;;;;;;;;;;11.59;46.42;101400.11;108777;1256;124113;-78
2023/04/22 06:56:25;;;;;;;;;;;;;;;11.59;46.34;101398.18;108869;1257;59443;-80
2023/04/22 06:58:52;;;;;;;;;;;;;;;11.59;46.54;101398.34;108758;1257;74688;-87
2023/04/22 07:01:19;;;;;;;;;;;;;;;11.61;46.67;101394.54;108746;1257;124034;-79
2023/04/22 07:03:46;;;;;;;;;;;;;;;11.64;46.77;101397.45;108878;1256;72703;-79
2023/04/22 07:06:13;;;;;;;;;;;;;;;11.68;46.71;101392.14;108670;1256;124866;-78
2023/04/22 07:08:40;;;;;;;;;;;;;;;11.71;46.82;101387.98;108916;1256;60659;-78
2023/04/22 07:11:07;;;;;;;;;;;;;;;11.75;46.94;101386.34;108923;1257;74730;-78
2023/04/22 07:13:34;;;;;;;;;;;;;;;11.80;46.94;101385.46;108829;1256;124854;-79
2023/04/22 07:16:01;;;;;;;;;;;;;;;11.89;47.18;101386.09;108898;1257;70436;-77
2023/04/22 07:18:28;;;;;;;;;;;;;;;11.97;47.21;101385.99;108651;1256;125298;-78
2023/04/22 07:20:55;;;;;;;;;;;;;;;12.03;47.16;101384.23;108893;1256;60159;-79
2023/04/22 07:23:22;;;;;;;;;;;;;;;12.07;47.14;101377.30;108642;1256;124645;-78
2023/04/22 07:25:49;;;;;;;;;;;;;;;12.12;47.28;101381.85;108885;1256;65308;-79
2023/04/22 07:28:16;;;;;;;;;;;;;;;12.16;47.23;101381.43;108883;1256;71204;-79
2023/04/22 07:30:43;;;;;;;;;;;;;;;12.19;47.34;101378.37;108595;1262;124399;-83
2023/04/22 07:33:10;;;;;;;;;;;;;;;12.23;47.30;101380.42;108670;1256;59981;-78
2023/04/22 07:35:38;;;;;;;;;;;;;;;12.26;47.26;101377.33;108788;1256;124250;-78
2023/04/22 07:38:05;;;;;;;;;;;;;;;12.28;47.21;101376.66;108784;1256;67019;-79
2023/04/22 07:40:32;;;;;;;;;;;;;;;12.33;47.50;101376.45;108938;1256;71403;-79
2023/04/22 07:43:04;;;;;;;;;;;;;;;12.39;47.42;101375.22;108659;1260;124164;-81
2023/04/22 07:45:31;;;;;;;;;;;;;;;12.43;47.54;101374.64;108850;1256;59356;-82
2023/04/22 07:47:58;;;;;;;;;;;;;;;12.47;47.60;101373.33;108752;1260;124914;-81
2023/04/22 07:50:25;;;;;;;;;;;;;;;12.52;47.61;101375.59;108812;1257;65984;-79
2023/04/22 07:52:52;;;;;;;;;;;;;;;12.60;47.74;101377.02;108653;1256;72717;-79
2023/04/22 07:55:19;;;;;;;;;;;;;;;12.67;47.67;101374.20;108727;1256;124051;-79
2023/04/22 07:57:46;;;;;;;;;;;;;;;12.71;47.59;101379.08;108683;1257;59287;-79
2023/04/22 08:00:13;;;;;;;;;;;;;;;12.74;47.55;101377.55;108603;1256;124784;-80
2023/04/22 08:02:40;;;;;;;;;;;;;;;12.77;47.55;101380.98;108886;1257;65794;-79
2023/04/22 08:05:07;;;;;;;;;;;;;;;12.79;47.44;101381.91;108581;1260;72707;-80
2023/04/22 08:07:54;;;;;;;;;;;;;;;12.80;47.46;101379.83;108612;1257;124538;-81
2023/04/22 08:10:42;;;;;;;;;;;;;;;12.83;47.40;101380.97;108807;1258;59087;-81
2023/04/22 08:13:09;;;;;;;;;;;;;;;12.82;47.36;101383.42;108719;1257;124840;-81
2023/04/22 08:15:36;;;;;;;;;;;;;;;12.83;47.26;101382.75;108886;1257;67350;-80
2023/04/22 08:18:03;;;;;;;;;;;;;;;12.84;47.26;101379.41;108515;1258;124545;-79
2023/04/22 08:20:30;;;;;;;;;;;;;;;12.84;47.36;101377.64;108806;1257;59522;-79
2023/04/22 08:22:59;;;;;;;;;;;;;;;12.84;47.37;101378.00;108712;1259;59419;-79
2023/04/22 08:25:26;;;;;;;;;;;;;;;12.85;47.41;101378.55;108626;1257;124862;-80
2023/04/22 08:27:53;;;;;;;;;;;;;;;12.89;47.50;101380.95;107977;1258;67700;-81
2023/04/22 08:30:20;;;;;;;;;;;;;;;12.93;47.40;101376.30;107307;1262;124343;-82
2023/04/22 08:32:53;;;;;;;;;;;;;;;12.95;47.38;101377.73;107450;1259;61276;-82
2023/04/22 08:35:20;;;;;;;;;;;;;;;12.95;47.30;101377.58;107242;1258;61336;-82
2023/04/22 08:37:47;;;;;;;;;;;;;;;12.95;47.33;101378.45;107287;1257;124528;-82
2023/04/22 08:40:14;;;;;;;;;;;;;;;12.97;47.43;101377.44;107285;1258;65601;-82
2023/04/22 08:42:41;;;;;;;;;;;;;;;12.97;47.38;101376.57;107338;1260;124260;-82
2023/04/22 08:45:09;;;;;;;;;;;;;;;13.00;47.49;101376.81;107403;1263;61032;-81
2023/04/22 08:47:36;;;;;;;;;;;;;;;13.02;47.30;101379.70;107169;1257;124795;-83
2023/04/22 08:50:04;;;;;;;;;;;;;;;13.04;47.39;101380.25;107124;1257;74695;-78
2023/04/22 08:52:31;;;;;;;;;;;;;;;13.05;47.41;101375.89;107175;1259;65751;-78
2023/04/22 08:54:58;;;;;;;;;;;;;;;13.11;47.66;101375.31;107130;1257;124138;-78
2023/04/22 08:57:25;;;;;;;;;;;;;;;13.16;47.67;101374.40;107481;1260;61356;-79
2023/04/22 08:59:54;;;;;;;;;;;;;;;13.19;47.61;101373.26;107581;1263;124603;-79
2023/04/22 09:02:22;;;;;;;;;;;;;;;13.22;47.50;101377.19;107438;1258;73285;-79
2023/04/22 09:04:50;;;;;;;;;;;;;;;13.24;47.52;101374.79;107376;1265;66783;-79
2023/04/22 09:07:20;;;;;;;;;;;;;;;13.28;47.65;101371.33;107454;1257;124390;-79
2023/04/22 09:09:50;;;;;;;;;;;;;;;13.32;47.64;101365.47;107687;1257;61350;-79
2023/04/22 09:12:18;;;;;;;;;;;;;;;13.37;47.57;101368.06;107438;1261;125571;-82
2023/04/22 09:14:46;;;;;;;;;;;;;;;13.41;47.62;101367.44;107605;1258;75687;-82
2023/04/22 09:17:17;;;;;;;;;;;;;;;13.42;47.68;101361.65;107617;1258;66071;-82
2023/04/22 09:19:44;;;;;;;;;;;;;;;13.47;47.69;101358.05;108576;1257;124107;-82
2023/04/22 09:22:13;;;;;;;;;;;;;;;13.51;47.61;101357.28;107798;1258;61385;-79
2023/04/22 09:24:50;;;;;;;;;;;;;;;13.52;47.58;101356.59;108587;1260;124581;-78
2023/04/22 09:27:17;;;;;;;;;;;;;;;13.50;47.44;101354.42;108784;1260;74695;-79
2023/04/22 09:29:47;;;;;;;;;;;;;;;13.49;47.55;101357.92;108539;1258;124846;-78
2023/04/22 09:32:14;;;;;;;;;;;;;;;13.50;47.55;101350.02;108757;1262;71420;-78
2023/04/22 09:34:48;;;;;;;;;;;;;;;13.53;47.57;101351.85;108747;1259;59062;-78
2023/04/22 09:37:17;;;;;;;;;;;;;;;13.55;47.56;101346.62;108755;1259;124118;-80
2023/04/22 09:39:46;;;;;;;;;;;;;;;13.57;47.67;101346.65;108860;1257;74715;-79
2023/04/22 09:42:13;;;;;;;;;;;;;;;13.62;47.84;101350.46;108655;1260;124046;-78
2023/04/22 09:44:40;;;;;;;;;;;;;;;13.65;47.72;101347.70;108785;1262;72722;-78
2023/04/22 09:47:09;;;;;;;;;;;;;;;13.69;47.82;101347.77;108775;1259;59370;-81
2023/04/22 09:49:37;;;;;;;;;;;;;;;13.74;47.67;101348.95;108694;1258;125343;-80
2023/04/22 09:52:04;;;;;;;;;;;;;;;13.75;47.82;101346.35;108810;1257;73718;-78
2023/04/22 09:54:31;;;;;;;;;;;;;;;13.75;47.91;101344.74;108730;1259;124142;-78
2023/04/22 09:56:58;;;;;;;;;;;;;;;13.79;47.97;101340.08;108707;1263;72742;-79
2023/04/22 09:59:27;;;;;;;;;;;;;;;13.84;48.06;101338.76;108715;1257;124721;-78
2023/04/22 10:01:55;;;;;;;;;;;;;;;13.89;48.11;101338.69;108814;1262;59324;-79
2023/04/22 10:04:23;;;;;;;;;;;;;;;13.90;47.94;101336.77;108898;1261;75239;-79
2023/04/22 10:06:51;;;;;;;;;;;;;;;13.87;48.09;101329.13;108687;1256;124050;-78
2023/04/22 10:09:20;;;;;;;;;;;;;;;13.87;48.14;101328.59;108895;1260;71096;-79
2023/04/22 10:11:48;;;;;;;;;;;;;;;13.91;48.52;101328.50;108628;1262;124868;-79
2023/04/22 10:14:15;;;;;;;;;;;;;;;13.94;48.50;101327.52;108797;1257;59346;-80
2023/04/22 10:16:42;;;;;;;;;;;;;;;13.96;48.60;101324.19;108116;1257;74660;-80
2023/04/22 10:19:10;;;;;;;;;;;;;;;13.94;48.59;101321.67;107326;1257;124617;-80
2023/04/22 10:21:37;;;;;;;;;;;;;;;13.93;48.61;101316.20;108273;1257;71734;-81
2023/04/22 10:24:05;;;;;;;;;;;;;;;13.89;48.56;101310.64;107178;1262;124307;-81
2023/04/22 10:26:43;;;;;;;;;;;;;;;13.89;48.61;101307.47;107189;1263;61330;-80
2023/04/22 10:29:15;;;;;;;;;;;;;;;13.90;48.51;101304.84;107315;1262;73357;-81
2023/04/22 10:31:43;;;;;;;;;;;;;;;13.92;48.40;101305.41;107469;1257;124552;-81
2023/04/22 10:34:12;;;;;;;;;;;;;;;13.92;48.30;101303.65;107256;1257;72473;-81
2023/04/22 10:37:02;;;;;;;;;;;;;;;13.95;48.60;101297.35;107260;1260;124232;-81
2023/04/22 10:39:30;;;;;;;;;;;;;;;14.04;48.63;101296.83;107340;1258;59949;-81
2023/04/22 10:42:11;;;;;;;;;;;;;;;14.11;48.42;101292.88;107227;1264;124393;-81
2023/04/22 10:44:50;;;;;;;;;;;;;;;14.16;48.29;101293.17;107542;1258;67275;-81
2023/04/22 10:47:26;;;;;;;;;;;;;;;14.18;48.27;101288.80;107529;1262;70880;-81
2023/04/22 10:50:12;;;;;;;;;;;;;;;14.19;48.30;101285.11;107509;1256;60903;-81
2023/04/22 10:52:40;;;;;;;;;;;;;;;14.25;48.16;101281.52;108003;1257;59620;-81
2023/04/22 10:55:08;;;;;;;;;;;;;;;14.32;48.13;101282.16;107306;1257;126525;-81
2023/04/22 10:57:40;;;;;;;;;;;;;;;14.35;48.13;101280.29;107397;1263;66720;-81
2023/04/22 11:00:26;;;;;;;;;;;;;;;14.40;47.92;101279.48;107648;1260;124404;-79
2023/04/22 11:03:09;;;;;;;;;;;;;;;14.46;47.77;101278.52;107348;1256;60201;-79
2023/04/22 11:05:36;;;;;;;;;;;;;;;14.52;47.74;101275.63;107451;1260;125389;-79
2023/04/22 11:08:10;;;;;;;;;;;;;;;14.58;47.89;101281.59;107581;1257;74689;-79
2023/04/22 11:10:41;;;;;;;;;;;;;;;14.61;47.93;101277.94;107679;1258;65943;-79
2023/04/22 11:13:10;;;;;;;;;;;;;;;14.62;47.94;101271.60;108610;1258;124429;-79
2023/04/22 11:15:37;;;;;;;;;;;;;;;14.65;47.93;101270.58;108900;1257;59389;-79
2023/04/22 11:18:07;;;;;;;;;;;;;;;14.66;47.92;101266.01;108841;1257;124791;-79
2023/04/22 11:20:34;;;;;;;;;;;;;;;14.70;47.93;101267.67;108828;1256;74660;-79
2023/04/22 11:23:01;;;;;;;;;;;;;;;14.72;47.82;101264.35;108946;1257;65678;-79
2023/04/22 11:25:28;;;;;;;;;;;;;;;14.73;47.74;101260.83;108722;1260;124965;-79
2023/04/22 11:27:59;;;;;;;;;;;;;;;14.76;47.67;101259.27;108859;1257;59147;-81
2023/04/22 11:30:26;;;;;;;;;;;;;;;14.78;47.56;101257.36;107662;1257;124543;-81
2023/04/22 11:32:54;;;;;;;;;;;;;;;14.76;47.45;101255.58;107935;1257;74556;-81
2023/04/22 11:35:22;;;;;;;;;;;;;;;14.75;47.59;101248.33;107974;1257;67105;-79
2023/04/22 11:37:51;;;;;;;;;;;;;;;14.82;47.65;101245.23;107310;1261;124121;-79
2023/04/22 11:40:25;;;;;;;;;;;;;;;14.90;47.81;101243.77;107429;1262;60105;-79
2023/04/22 11:42:53;;;;;;;;;;;;;;;14.98;47.65;101241.41;107309;1257;124563;-79
2023/04/22 11:45:20;;;;;;;;;;;;;;;15.03;47.54;101238.48;107327;1262;74401;-79
2023/04/22 11:47:49;;;;;;;;;;;;;;;15.07;47.50;101242.44;107332;1264;126649;-79
2023/04/22 11:50:17;;;;;;;;;;;;;;;15.08;47.43;101239.44;107467;1262;72686;-81
2023/04/22 11:52:47;;;;;;;;;;;;;;;15.11;47.32;101238.77;107097;1256;59186;-81
2023/04/22 11:55:14;;;;;;;;;;;;;;;15.13;47.25;101238.64;107394;1257;124463;-82
2023/04/22 11:57:41;;;;;;;;;;;;;;;15.13;47.25;101233.69;107327;1258;72979;-79
2023/04/22 12:00:12;;;;;;;;;;;;;;;15.16;47.45;101229.13;107280;1257;124940;-81
2023/04/22 12:02:48;;;;;;;;;;;;;;;15.18;47.40;101227.03;107442;1257;72761;-82
2023/04/22 12:05:16;;;;;;;;;;;;;;;15.21;47.50;101230.77;107404;1258;61324;-81
2023/04/22 12:07:43;;;;;;;;;;;;;;;15.26;47.49;101232.62;107591;1257;124173;-81
2023/04/22 12:10:10;;;;;;;;;;;;;;;15.30;47.39;101225.96;107738;1257;75266;-81
2023/04/22 12:12:38;;;;;;;;;;;;;;;15.28;47.22;101221.33;107239;1256;124487;-82
2023/04/22 12:15:06;;;;;;;;;;;;;;;15.27;47.36;101223.09;107140;1257;239549;-81
2023/04/22 12:17:33;;;;;;;;;;;;;;;15.28;47.24;101218.70;107337;1257;125089;-81
2023/04/22 12:20:00;;;;;;;;;;;;;;;15.29;47.33;101213.20;107406;1257;61812;-83
2023/04/22 12:22:33;;;;;;;;;;;;;;;15.29;47.47;101214.10;107547;1257;74664;-83
2023/04/22 12:25:00;;;;;;;;;;;;;;;15.35;47.52;101212.59;107382;1257;124521;-82
2023/04/22 12:27:27;;;;;;;;;;;;;;;15.40;47.44;101211.40;107562;1256;71328;-84
2023/04/22 12:30:10;;;;;;;;;;;;;;;15.41;47.38;101211.95;107175;1258;124289;-85